createdAt,value
2018-12-27T00:00:39.507Z,29.07
2018-12-27T00:03:07.470Z,34.38
2018-12-27T00:05:35.778Z,34.03
2018-12-27T00:08:05.627Z,34.30
2018-12-27T00:10:33.342Z,32.30
2018-12-27T00:13:01.362Z,30.53
2018-12-27T00:15:29.610Z,35.73
2018-12-27T00:17:58.199Z,33.38
2018-12-27T00:20:26.549Z,31.68
2018-12-27T00:22:54.548Z,36.50
2018-12-27T00:25:23.034Z,32.87
2018-12-27T00:27:51.350Z,31.68
2018-12-27T00:30:19.411Z,29.95
2018-12-27T00:32:47.500Z,35.03
2018-12-27T00:35:15.899Z,36.58
2018-12-27T00:37:43.937Z,38.38
2018-12-27T00:40:12.020Z,37.38
2018-12-27T00:42:40.342Z,37.53
2018-12-27T00:45:08.354Z,39.00
2018-12-27T00:47:36.657Z,37.67
2018-12-27T00:50:05.390Z,42.53
2018-12-27T00:52:34.082Z,43.57
2018-12-27T00:55:02.442Z,40.38
2018-12-27T00:57:30.834Z,42.13
2018-12-27T00:59:59.227Z,43.33
2018-12-27T01:02:27.572Z,43.55
2018-12-27T01:04:55.966Z,41.68
2018-12-27T01:07:24.358Z,44.63
2018-12-27T01:09:54.210Z,45.03
2018-12-27T01:12:22.279Z,42.43
2018-12-27T01:14:50.342Z,43.48
2018-12-27T01:17:18.646Z,46.50
2018-12-27T01:19:46.707Z,38.02
2018-12-27T01:22:14.787Z,42.33
2018-12-27T01:24:43.415Z,38.02
2018-12-27T01:27:11.804Z,38.95
2018-12-27T01:29:39.832Z,39.35
2018-12-27T01:32:07.879Z,41.90
2018-12-27T01:34:35.913Z,37.28
2018-12-27T01:37:04.322Z,37.63
2018-12-27T01:39:32.776Z,39.73
2018-12-27T01:42:01.179Z,36.42
2018-12-27T01:44:29.530Z,37.42
2018-12-27T01:46:57.587Z,35.60
2018-12-27T01:49:25.957Z,36.07
2018-12-27T01:51:55.831Z,36.73
2018-12-27T01:54:23.906Z,37.17
2018-12-27T01:56:51.967Z,35.15
2018-12-27T01:59:20.035Z,35.90
2018-12-27T02:01:48.334Z,38.67
2018-12-27T02:04:16.766Z,35.13
2018-12-27T02:06:45.107Z,37.40
2018-12-27T02:09:13.536Z,36.58
2018-12-27T02:11:41.907Z,35.90
2018-12-27T02:14:10.592Z,37.23
2018-12-27T02:16:38.970Z,39.70
2018-12-27T02:19:07.066Z,40.08
2018-12-27T02:21:35.746Z,43.63
2018-12-27T02:24:03.790Z,39.83
2018-12-27T02:26:31.844Z,43.85
2018-12-27T02:29:00.257Z,43.63
2018-12-27T02:31:28.576Z,44.60
2018-12-27T02:33:57.732Z,46.03
2018-12-27T02:36:26.094Z,45.43
2018-12-27T02:38:54.158Z,49.03
2018-12-27T02:41:22.194Z,46.88
2018-12-27T02:43:50.576Z,50.63
2018-12-27T02:46:18.670Z,48.25
2018-12-27T02:48:47.084Z,55.80
2018-12-27T02:51:15.562Z,53.00
2018-12-27T02:53:43.946Z,53.68
2018-12-27T02:56:12.005Z,59.23
2018-12-27T02:58:40.665Z,52.08
2018-12-27T03:01:08.739Z,52.88
2018-12-27T03:03:43.776Z,59.45
2018-12-27T03:06:06.841Z,53.73
2018-12-27T03:08:34.874Z,57.13
2018-12-27T03:11:03.228Z,60.70
2018-12-27T03:13:31.970Z,58.78
2018-12-27T03:16:00.018Z,60.90
2018-12-27T03:18:28.050Z,58.15
2018-12-27T03:20:56.679Z,62.62
2018-12-27T03:23:24.688Z,65.95
2018-12-27T03:25:53.063Z,65.40
2018-12-27T03:28:21.445Z,61.18
2018-12-27T03:30:49.511Z,64.50
2018-12-27T03:33:17.807Z,65.28
2018-12-27T03:35:46.495Z,68.80
2018-12-27T03:38:14.878Z,64.87
2018-12-27T03:40:43.251Z,66.50
2018-12-27T03:43:11.303Z,61.75
2018-12-27T03:45:39.694Z,58.90
2018-12-27T03:48:08.068Z,65.65
2018-12-27T03:50:36.755Z,69.63
2018-12-27T03:53:05.155Z,69.77
2018-12-27T03:55:33.531Z,65.53
2018-12-27T03:58:01.547Z,77.92
2018-12-27T04:00:29.634Z,66.90
2018-12-27T04:02:57.683Z,73.12
2018-12-27T04:05:25.732Z,74.17
2018-12-27T04:07:53.787Z,74.55
2018-12-27T04:10:22.834Z,70.08
2018-12-27T04:12:51.251Z,70.08
2018-12-27T04:15:20.345Z,67.92
2018-12-27T04:17:48.330Z,67.37
2018-12-27T04:20:16.579Z,65.20
2018-12-27T04:22:44.866Z,67.37
2018-12-27T04:25:12.859Z,62.43
2018-12-27T04:27:41.213Z,67.12
2018-12-27T04:30:09.480Z,65.30
2018-12-27T04:32:38.717Z,65.42
2018-12-27T04:35:07.254Z,62.40
2018-12-27T04:37:35.846Z,61.58
2018-12-27T04:40:04.354Z,65.90
2018-12-27T04:42:33.248Z,65.60
2018-12-27T04:45:01.527Z,68.97
2018-12-27T04:47:29.456Z,76.75
2018-12-27T04:49:57.459Z,77.40
2018-12-27T04:52:25.768Z,69.72
2018-12-27T04:54:54.122Z,70.37
2018-12-27T04:57:22.107Z,70.15
2018-12-27T04:59:50.368Z,65.30
2018-12-27T05:02:18.603Z,74.20
2018-12-27T05:04:46.595Z,66.45
2018-12-27T05:07:14.887Z,66.25
2018-12-27T05:09:43.161Z,69.10
2018-12-27T05:12:11.447Z,69.60
2018-12-27T05:14:39.418Z,66.00
2018-12-27T05:17:07.398Z,67.22
2018-12-27T05:19:36.454Z,71.90
2018-12-27T05:22:04.413Z,68.78
2018-12-27T05:24:32.381Z,69.10
2018-12-27T05:27:00.660Z,65.55
2018-12-27T05:29:28.639Z,67.08
2018-12-27T05:31:56.595Z,63.35
2018-12-27T05:34:26.400Z,63.73
2018-12-27T05:36:55.950Z,59.77
2018-12-27T05:39:24.243Z,61.68
2018-12-27T05:41:54.351Z,57.67
2018-12-27T05:44:22.292Z,56.77
2018-12-27T05:46:50.237Z,56.25
2018-12-27T05:49:18.545Z,59.13
2018-12-27T05:51:46.849Z,63.80
2018-12-27T05:54:14.811Z,61.65
2018-12-27T05:56:43.097Z,53.05
2018-12-27T05:59:11.090Z,58.95
2018-12-27T06:01:39.080Z,56.30
2018-12-27T06:04:07.067Z,56.08
2018-12-27T06:06:35.382Z,54.35
2018-12-27T06:09:05.199Z,56.63
2018-12-27T06:11:33.150Z,54.83
2018-12-27T06:14:01.426Z,48.87
2018-12-27T06:16:30.026Z,45.97
2018-12-27T06:18:58.310Z,49.35
2018-12-27T06:21:26.302Z,50.63
2018-12-27T06:23:54.318Z,49.53
2018-12-27T06:26:22.344Z,47.10
2018-12-27T06:28:51.098Z,52.33
2018-12-27T06:31:24.902Z,48.78
2018-12-27T06:33:53.492Z,46.75
2018-12-27T06:36:21.483Z,46.25
2018-12-27T06:38:49.838Z,47.10
2018-12-27T06:41:17.846Z,41.75
2018-12-27T06:43:45.791Z,42.58
2018-12-27T06:46:14.159Z,42.75
2018-12-27T06:48:42.735Z,41.18
2018-12-27T06:51:11.431Z,40.50
2018-12-27T06:53:39.410Z,40.92
2018-12-27T06:56:07.744Z,45.52
2018-12-27T06:58:37.867Z,44.50
2018-12-27T07:01:05.652Z,41.02
2018-12-27T07:03:33.622Z,43.33
2018-12-27T07:06:02.171Z,41.48
2018-12-27T07:08:30.498Z,39.73
2018-12-27T07:10:58.767Z,42.67
2018-12-27T07:13:26.775Z,42.17
2018-12-27T07:15:55.022Z,42.50
2018-12-27T07:18:23.090Z,39.70
2018-12-27T07:20:51.383Z,42.40
2018-12-27T07:23:19.999Z,40.88
2018-12-27T07:25:48.315Z,36.20
2018-12-27T07:28:17.750Z,38.58
2018-12-27T07:30:45.681Z,39.67
2018-12-27T07:33:13.696Z,36.50
2018-12-27T07:35:41.725Z,36.58
2018-12-27T07:38:10.331Z,37.03
2018-12-27T07:40:38.301Z,40.48
2018-12-27T07:43:06.576Z,41.40
2018-12-27T07:45:34.560Z,38.13
2018-12-27T07:48:03.127Z,36.35
2018-12-27T07:50:31.228Z,31.52
2018-12-27T07:52:59.217Z,36.70
2018-12-27T07:55:27.487Z,39.35
2018-12-27T07:57:55.488Z,37.63
2018-12-27T08:00:23.482Z,39.48
2018-12-27T08:02:51.455Z,35.68
2018-12-27T08:05:21.574Z,34.83
2018-12-27T08:07:49.615Z,35.03
2018-12-27T08:10:17.605Z,38.78
2018-12-27T08:12:45.558Z,32.28
2018-12-27T08:15:13.867Z,31.55
2018-12-27T08:17:42.934Z,36.53
2018-12-27T08:20:10.939Z,33.88
2018-12-27T08:22:38.889Z,34.23
2018-12-27T08:25:07.483Z,33.45
2018-12-27T08:27:35.494Z,38.30
2018-12-27T08:30:03.728Z,34.03
2018-12-27T08:32:31.726Z,32.98
2018-12-27T08:35:00.304Z,35.25
2018-12-27T08:37:28.543Z,36.73
2018-12-27T08:40:02.064Z,35.80
2018-12-27T08:42:30.507Z,41.70
2018-12-27T08:44:59.099Z,39.85
2018-12-27T08:47:27.634Z,41.68
2018-12-27T08:49:55.945Z,43.10
2018-12-27T08:52:24.056Z,39.50
2018-12-27T08:54:52.390Z,40.90
2018-12-27T08:57:20.651Z,42.73
2018-12-27T08:59:48.854Z,41.68
2018-12-27T09:02:17.244Z,40.73
2018-12-27T09:04:45.909Z,41.48
2018-12-27T09:07:14.150Z,41.65
2018-12-27T09:09:42.588Z,40.95
2018-12-27T09:12:11.087Z,38.92
2018-12-27T09:14:39.450Z,40.63
2018-12-27T09:17:07.609Z,40.12
2018-12-27T09:19:35.773Z,41.02
2018-12-27T09:22:04.214Z,39.90
2018-12-27T09:24:34.237Z,41.40
2018-12-27T09:27:03.025Z,43.30
2018-12-27T09:29:31.562Z,43.83
2018-12-27T09:31:59.573Z,46.92
2018-12-27T09:34:27.968Z,51.35
2018-12-27T09:36:56.488Z,51.65
2018-12-27T09:39:24.919Z,48.75
2018-12-27T09:41:52.947Z,50.00
2018-12-27T09:44:21.098Z,47.38
2018-12-27T09:46:49.399Z,44.67
2018-12-27T09:49:17.717Z,48.77
2018-12-27T09:51:46.069Z,50.52
2018-12-27T09:54:14.312Z,52.23
2018-12-27T09:56:43.101Z,53.35
2018-12-27T09:59:11.240Z,51.45
2018-12-27T10:01:39.484Z,55.65
2018-12-27T10:04:07.626Z,56.70
2018-12-27T10:06:35.969Z,52.87
2018-12-27T10:09:04.997Z,50.45
2018-12-27T10:11:33.197Z,51.68
2018-12-27T10:14:01.351Z,57.13
2018-12-27T10:16:30.031Z,52.95
2018-12-27T10:18:58.170Z,53.17
2018-12-27T10:21:26.386Z,51.85
2018-12-27T10:23:54.985Z,54.40
2018-12-27T10:26:23.655Z,64.97
2018-12-27T10:28:51.829Z,59.53
2018-12-27T10:31:19.989Z,57.80
2018-12-27T10:33:48.021Z,60.40
2018-12-27T10:36:17.055Z,57.63
2018-12-27T10:38:45.919Z,61.23
2018-12-27T10:41:14.165Z,58.55
2018-12-27T10:43:42.262Z,58.75
2018-12-27T10:46:11.930Z,59.67
2018-12-27T10:48:40.705Z,59.42
2018-12-27T10:51:08.745Z,62.93
2018-12-27T10:53:37.645Z,68.15
2018-12-27T10:56:06.005Z,59.33
2018-12-27T10:58:34.529Z,62.53
2018-12-27T11:01:03.101Z,57.00
2018-12-27T11:03:31.966Z,61.00
2018-12-27T11:06:00.286Z,62.93
2018-12-27T11:08:28.425Z,60.03
2018-12-27T11:10:56.533Z,61.63
2018-12-27T11:13:25.117Z,66.55
2018-12-27T11:15:53.290Z,72.32
2018-12-27T11:18:21.788Z,66.37
2018-12-27T11:20:50.768Z,57.75
2018-12-27T11:23:19.306Z,55.12
2018-12-27T11:25:48.556Z,63.20
2018-12-27T11:28:16.805Z,67.15
2018-12-27T11:30:44.910Z,61.33
2018-12-27T11:33:12.991Z,59.35
2018-12-27T11:35:41.027Z,62.08
2018-12-27T11:38:09.325Z,61.33
2018-12-27T11:40:38.063Z,57.95
2018-12-27T11:43:06.705Z,59.98
2018-12-27T11:45:35.056Z,57.10
2018-12-27T11:48:03.330Z,58.63
2018-12-27T11:50:32.094Z,61.85
2018-12-27T11:53:00.238Z,58.45
2018-12-27T11:55:28.381Z,59.45
2018-12-27T11:57:58.773Z,66.75
2018-12-27T12:00:28.715Z,57.83
2018-12-27T12:02:58.842Z,64.47
2018-12-27T12:05:27.429Z,66.75
2018-12-27T12:07:59.030Z,64.77
2018-12-27T12:10:27.480Z,68.78
2018-12-27T12:12:55.627Z,71.75
2018-12-27T12:15:23.821Z,69.30
2018-12-27T12:17:52.089Z,67.97
2018-12-27T12:20:20.633Z,78.92
2018-12-27T12:22:50.341Z,74.85
2018-12-27T12:25:18.458Z,71.10
2018-12-27T12:27:48.299Z,67.70
2018-12-27T12:30:16.609Z,70.07
2018-12-27T12:32:44.735Z,73.60
2018-12-27T12:35:15.026Z,61.68
2018-12-27T12:37:43.225Z,59.75
2018-12-27T12:40:11.509Z,70.65
2018-12-27T12:42:39.599Z,61.83
2018-12-27T12:45:07.845Z,55.73
2018-12-27T12:47:35.913Z,57.25
2018-12-27T12:50:04.456Z,59.30
2018-12-27T12:52:33.094Z,53.70
2018-12-27T12:55:01.128Z,54.05
2018-12-27T12:57:29.742Z,49.27
2018-12-27T12:59:57.847Z,54.00
2018-12-27T13:02:25.959Z,50.97
2018-12-27T13:04:54.534Z,47.67
2018-12-27T13:07:22.754Z,48.35
2018-12-27T13:09:50.870Z,49.35
2018-12-27T13:12:19.461Z,50.38
2018-12-27T13:14:48.173Z,49.63
2018-12-27T13:17:16.589Z,53.20
2018-12-27T13:19:45.808Z,61.80
2018-12-27T13:22:14.073Z,54.93
2018-12-27T13:24:43.226Z,51.02
2018-12-27T13:27:11.790Z,50.10
2018-12-27T13:29:40.294Z,50.92
2018-12-27T13:32:08.759Z,51.33
2018-12-27T13:34:36.970Z,49.18
2018-12-27T13:37:05.141Z,49.20
2018-12-27T13:39:34.806Z,50.63
2018-12-27T13:42:03.021Z,53.02
2018-12-27T13:44:31.147Z,54.03
2018-12-27T13:46:59.215Z,57.62
2018-12-27T13:49:27.348Z,52.33
2018-12-27T13:51:56.198Z,57.25
2018-12-27T13:54:25.677Z,54.77
2018-12-27T13:56:53.822Z,60.25
2018-12-27T13:59:21.989Z,61.25
2018-12-27T14:01:50.588Z,59.90
2018-12-27T14:04:18.773Z,60.40
2018-12-27T14:06:47.521Z,62.23
2018-12-27T14:09:15.725Z,63.63
2018-12-27T14:11:43.800Z,62.78
2018-12-27T14:14:11.823Z,60.67
2018-12-27T14:16:40.214Z,62.78
2018-12-27T14:19:08.775Z,69.50
2018-12-27T14:21:36.951Z,66.42
2018-12-27T14:24:05.110Z,69.50
2018-12-27T14:26:33.341Z,69.22
2018-12-27T14:29:01.389Z,69.03
2018-12-27T14:31:29.534Z,70.17
2018-12-27T14:33:57.906Z,74.97
2018-12-27T14:36:26.346Z,68.95
2018-12-27T14:38:54.930Z,75.75
2018-12-27T14:41:23.302Z,79.80
2018-12-27T14:43:52.220Z,81.78
2018-12-27T14:46:21.154Z,73.65
2018-12-27T14:48:49.370Z,79.27
2018-12-27T14:51:17.838Z,81.63
2018-12-27T14:53:45.940Z,82.13
2018-12-27T14:56:14.302Z,78.60
2018-12-27T14:58:42.842Z,77.35
2018-12-27T15:01:11.327Z,85.97
2018-12-27T15:03:39.914Z,87.08
2018-12-27T15:06:08.598Z,92.00
2018-12-27T15:08:37.209Z,88.60
2018-12-27T15:11:05.810Z,95.10
2018-12-27T15:13:33.982Z,104.00
2018-12-27T15:16:02.946Z,90.42
2018-12-27T15:18:31.149Z,108.20
2018-12-27T15:20:59.351Z,91.05
2018-12-27T15:23:27.763Z,89.80
2018-12-27T15:25:55.913Z,77.60
2018-12-27T15:28:24.833Z,84.45
2018-12-27T15:30:53.343Z,79.97
2018-12-27T15:33:23.742Z,73.60
2018-12-27T15:35:52.399Z,95.30
2018-12-27T15:38:20.543Z,82.10
2018-12-27T15:40:48.822Z,94.30
2018-12-27T15:43:17.298Z,98.60
2018-12-27T15:45:45.796Z,98.70
2018-12-27T15:48:15.712Z,98.85
2018-12-27T15:50:43.877Z,115.52
2018-12-27T15:53:11.949Z,101.02
2018-12-27T15:55:40.454Z,99.97
2018-12-27T15:58:08.562Z,111.50
2018-12-27T16:00:37.010Z,112.50
2018-12-27T16:03:05.245Z,110.35
2018-12-27T16:05:33.530Z,94.90
2018-12-27T16:08:01.636Z,108.07
2018-12-27T16:10:30.177Z,101.07
2018-12-27T16:12:58.551Z,106.72
2018-12-27T16:15:26.714Z,105.30
2018-12-27T16:17:55.324Z,108.60
2018-12-27T16:20:23.824Z,108.87
2018-12-27T16:22:51.983Z,100.00
2018-12-27T16:25:20.838Z,106.72
2018-12-27T16:27:49.419Z,111.10
2018-12-27T16:30:17.633Z,108.95
2018-12-27T16:32:45.909Z,111.22
2018-12-27T16:35:14.272Z,102.75
2018-12-27T16:37:42.469Z,114.45
2018-12-27T16:40:11.049Z,104.20
2018-12-27T16:42:41.331Z,118.47
2018-12-27T16:45:10.983Z,100.00
2018-12-27T16:47:39.435Z,112.00
2018-12-27T16:50:08.585Z,133.30
2018-12-27T16:52:37.273Z,106.83
2018-12-27T16:55:05.729Z,126.50
2018-12-27T16:57:34.515Z,124.67
2018-12-27T17:00:03.117Z,102.22
2018-12-27T17:02:31.187Z,112.65
2018-12-27T17:04:59.357Z,123.28
2018-12-27T17:07:29.341Z,99.60
2018-12-27T17:09:57.459Z,96.77
2018-12-27T17:12:25.717Z,106.47
2018-12-27T17:14:53.841Z,108.87
2018-12-27T17:17:23.762Z,129.90
2018-12-27T17:19:51.958Z,115.05
2018-12-27T17:22:19.979Z,109.42
2018-12-27T17:24:48.448Z,129.20
2018-12-27T17:27:16.763Z,114.15
2018-12-27T17:29:46.226Z,106.43
2018-12-27T17:32:14.394Z,108.50
2018-12-27T17:34:42.497Z,103.47
2018-12-27T17:37:11.243Z,105.90
2018-12-27T17:39:39.833Z,102.72
2018-12-27T17:42:08.038Z,109.27
2018-12-27T17:44:36.342Z,90.30
2018-12-27T17:47:04.777Z,99.95
2018-12-27T17:49:32.968Z,98.67
2018-12-27T17:52:01.730Z,98.37
2018-12-27T17:54:30.862Z,99.67
2018-12-27T17:56:58.984Z,99.55
2018-12-27T17:59:27.098Z,115.12
2018-12-27T18:01:55.602Z,99.00
2018-12-27T18:04:23.992Z,99.90
2018-12-27T18:06:52.310Z,96.80
2018-12-27T18:09:20.498Z,93.95
2018-12-27T18:11:49.187Z,103.70
2018-12-27T18:14:17.452Z,100.10
2018-12-27T18:16:46.127Z,87.65
2018-12-27T18:19:14.323Z,80.03
2018-12-27T18:21:42.386Z,79.25
2018-12-27T18:24:10.866Z,79.67
2018-12-27T18:26:39.411Z,90.92
2018-12-27T18:29:08.034Z,79.92
2018-12-27T18:31:37.546Z,78.65
2018-12-27T18:34:05.706Z,72.50
2018-12-27T18:36:34.090Z,67.90
2018-12-27T18:39:02.215Z,70.40
2018-12-27T18:41:30.438Z,61.92
2018-12-27T18:43:58.682Z,65.92
2018-12-27T18:46:27.097Z,65.83
2018-12-27T18:48:55.167Z,64.10
2018-12-27T18:51:23.341Z,60.63
2018-12-27T18:53:51.717Z,64.20
2018-12-27T18:56:19.855Z,61.18
2018-12-27T18:58:48.482Z,58.40
2018-12-27T19:01:17.062Z,56.68
2018-12-27T19:03:45.137Z,62.80
2018-12-27T19:06:13.325Z,61.00
2018-12-27T19:08:41.501Z,62.55
2018-12-27T19:11:27.608Z,60.12
2018-12-27T19:13:56.021Z,62.48
2018-12-27T19:16:24.557Z,65.22
2018-12-27T19:18:52.986Z,54.90
2018-12-27T19:21:46.550Z,58.42
2018-12-27T19:24:14.695Z,61.02
2018-12-27T19:26:44.546Z,58.38
2018-12-27T19:29:12.814Z,63.95
2018-12-27T19:31:41.442Z,64.37
2018-12-27T19:34:09.778Z,59.63
2018-12-27T19:36:38.022Z,61.80
2018-12-27T19:39:06.886Z,63.10
2018-12-27T19:41:35.433Z,57.88
2018-12-27T19:44:04.198Z,62.20
2018-12-27T19:46:33.210Z,59.70
2018-12-27T19:49:01.589Z,61.53
2018-12-27T19:51:29.803Z,62.37
2018-12-27T19:53:58.246Z,57.20
2018-12-27T19:56:26.472Z,57.90
2018-12-27T19:58:54.580Z,56.05
2018-12-27T20:01:22.932Z,54.80
2018-12-27T20:03:51.054Z,50.90
2018-12-27T20:06:19.428Z,55.03
2018-12-27T20:08:48.013Z,51.20
2018-12-27T20:11:16.600Z,50.85
2018-12-27T20:13:44.813Z,48.38
2018-12-27T20:16:14.127Z,46.42
2018-12-27T20:18:42.686Z,46.77
2018-12-27T20:21:11.178Z,51.50
2018-12-27T20:23:39.353Z,53.10
2018-12-27T20:26:07.529Z,51.00
2018-12-27T20:28:35.721Z,50.38
2018-12-27T20:31:04.190Z,49.03
2018-12-27T20:33:32.311Z,53.60
2018-12-27T20:36:00.754Z,52.60
2018-12-27T20:38:29.337Z,48.70
2018-12-27T20:40:57.498Z,54.53
2018-12-27T20:43:25.567Z,44.88
2018-12-27T20:45:53.934Z,49.63
2018-12-27T20:48:22.329Z,48.78
2018-12-27T20:50:50.914Z,46.60
2018-12-27T20:53:19.475Z,46.55
2018-12-27T20:55:48.202Z,49.40
2018-12-27T20:58:17.791Z,51.63
2018-12-27T21:00:45.810Z,50.10
2018-12-27T21:03:14.272Z,51.15
2018-12-27T21:05:42.678Z,52.93
2018-12-27T21:08:14.227Z,47.37
2018-12-27T21:10:41.955Z,48.13
2018-12-27T21:13:10.123Z,48.52
2018-12-27T21:15:38.593Z,48.42
2018-12-27T21:18:06.769Z,45.48
2018-12-27T21:20:34.945Z,53.80
2018-12-27T21:23:03.520Z,55.25
2018-12-27T21:25:31.657Z,53.73
2018-12-27T21:28:00.713Z,52.40
2018-12-27T21:30:28.891Z,51.05
2018-12-27T21:32:57.880Z,49.33
2018-12-27T21:35:26.346Z,54.58
2018-12-27T21:37:55.436Z,54.00
2018-12-27T21:40:23.493Z,59.35
2018-12-27T21:42:52.365Z,55.85
2018-12-27T21:45:20.426Z,58.15
2018-12-27T21:47:48.960Z,51.70
2018-12-27T21:50:17.405Z,54.38
2018-12-27T21:52:46.337Z,51.18
2018-12-27T21:55:14.686Z,51.33
2018-12-27T21:57:42.826Z,50.45
2018-12-27T22:00:11.269Z,50.73
2018-12-27T22:02:39.766Z,51.93
2018-12-27T22:05:09.662Z,45.28
2018-12-27T22:07:38.137Z,46.50
2018-12-27T22:10:06.581Z,42.70
2018-12-27T22:12:34.690Z,45.50
2018-12-27T22:15:03.337Z,46.50
2018-12-27T22:17:31.482Z,44.15
2018-12-27T22:19:59.661Z,43.83
2018-12-27T22:22:28.106Z,49.27
2018-12-27T22:24:56.775Z,39.83
2018-12-27T22:27:25.563Z,44.60
2018-12-27T22:29:53.758Z,41.98
2018-12-27T22:32:22.468Z,40.57
2018-12-27T22:34:51.219Z,39.78
2018-12-27T22:37:20.590Z,36.73
2018-12-27T22:39:48.654Z,39.05
2018-12-27T22:42:17.097Z,37.42
2018-12-27T22:44:45.479Z,37.60
2018-12-27T22:47:13.971Z,38.88
2018-12-27T22:49:42.233Z,38.90
2018-12-27T22:52:10.613Z,42.23
2018-12-27T22:54:38.781Z,38.50
2018-12-27T22:57:06.958Z,46.25
2018-12-27T22:59:35.671Z,47.20
2018-12-27T23:02:03.688Z,47.13
2018-12-27T23:04:31.850Z,44.58
2018-12-27T23:06:59.957Z,46.33
2018-12-27T23:09:28.423Z,42.83
2018-12-27T23:11:57.402Z,45.30
2018-12-27T23:14:25.534Z,48.77
2018-12-27T23:16:53.952Z,46.18
2018-12-27T23:19:22.281Z,41.85
2018-12-27T23:21:50.298Z,42.05
2018-12-27T23:24:19.146Z,41.40
2018-12-27T23:26:47.627Z,42.62
2018-12-27T23:29:16.781Z,42.50
2018-12-27T23:31:45.821Z,43.38
2018-12-27T23:34:14.241Z,44.40
2018-12-27T23:36:42.410Z,46.28
2018-12-27T23:39:11.025Z,47.05
2018-12-27T23:41:39.634Z,50.20
2018-12-27T23:44:07.802Z,50.33
2018-12-27T23:46:35.882Z,52.47
2018-12-27T23:49:04.062Z,56.60
2018-12-27T23:51:33.682Z,55.40
2018-12-27T23:54:01.935Z,52.38
2018-12-27T23:56:30.705Z,54.10
2018-12-27T23:58:59.059Z,53.23
